Terminal Aerodrome Forecast
Issued by NWS

Home | Current Version | Previous Version | Text Only | Print | Product List | Glossary Off
Versions: 1 2 3 4 5 6 7 8 9 10 11 12 13

000
FTUS45 KGGW 201126
TAFOLF
TAF
KOLF 201126Z 2012/2112 VRB05KT P6SM FEW250
     FM202000 24008KT P6SM BKN150
     FM210200 29018G26KT P6SM SCT050 BKN120=

USA.gov is the U.S. government's official web portal to all federal, state and local government web resources and services.